createdAt,value
2022-12-23T00:00:18.196Z,113.10
2022-12-23T00:01:18.232Z,107.70
2022-12-23T00:02:18.285Z,115.30
2022-12-23T00:03:18.255Z,111.20
2022-12-23T00:04:18.291Z,113.10
2022-12-23T00:05:18.157Z,121.00
2022-12-23T00:06:18.161Z,123.90
2022-12-23T00:07:18.132Z,115.40
2022-12-23T00:08:18.124Z,109.10
2022-12-23T00:09:18.110Z,104.70
2022-12-23T00:10:18.089Z,107.50
2022-12-23T00:11:18.127Z,112.60
2022-12-23T00:12:18.061Z,114.40
2022-12-23T00:13:18.068Z,114.50
2022-12-23T00:14:21.688Z,121.10
2022-12-23T00:15:18.044Z,134.70
2022-12-23T00:16:18.148Z,136.30
2022-12-23T00:17:22.438Z,123.40
2022-12-23T00:18:18.014Z,127.20
2022-12-23T00:19:18.032Z,123.80
2022-12-23T00:20:17.995Z,116.20
2022-12-23T00:21:17.972Z,120.20
2022-12-23T00:22:17.966Z,119.60
2022-12-23T00:23:17.934Z,119.40
2022-12-23T00:24:17.986Z,114.50
2022-12-23T00:25:17.921Z,130.10
2022-12-23T00:26:17.919Z,116.80
2022-12-23T00:27:17.901Z,118.60
2022-12-23T00:28:17.901Z,123.60
2022-12-23T00:29:17.899Z,124.60
2022-12-23T00:30:17.880Z,123.50
2022-12-23T00:31:17.883Z,123.50
2022-12-23T00:32:17.889Z,121.40
2022-12-23T00:33:17.857Z,121.80
2022-12-23T00:34:17.825Z,122.10
2022-12-23T00:35:17.834Z,115.30
2022-12-23T00:36:17.955Z,113.80
2022-12-23T00:37:17.777Z,112.60
2022-12-23T00:38:17.788Z,123.00
2022-12-23T00:39:17.772Z,113.10
2022-12-23T00:40:17.768Z,115.60
2022-12-23T00:41:17.765Z,126.00
2022-12-23T00:42:17.734Z,114.00
2022-12-23T00:43:17.711Z,117.20
2022-12-23T00:44:17.738Z,111.70
2022-12-23T00:45:17.685Z,108.90
2022-12-23T00:46:17.758Z,116.60
2022-12-23T00:47:17.698Z,112.10
2022-12-23T00:48:17.665Z,114.30
2022-12-23T00:49:17.637Z,113.90
2022-12-23T00:50:17.655Z,120.90
2022-12-23T00:51:17.614Z,112.00
2022-12-23T00:52:17.661Z,114.70
2022-12-23T00:53:17.614Z,128.50
2022-12-23T00:54:17.612Z,131.30
2022-12-23T00:55:17.580Z,116.20
2022-12-23T00:56:17.579Z,122.00
2022-12-23T00:57:17.597Z,134.20
2022-12-23T00:58:17.809Z,124.30
2022-12-23T00:59:17.530Z,126.30
2022-12-23T01:00:17.529Z,125.60
2022-12-23T01:01:17.590Z,134.40
2022-12-23T01:02:17.661Z,123.40
2022-12-23T01:03:17.547Z,128.50
2022-12-23T01:04:17.495Z,124.20
2022-12-23T01:05:17.479Z,162.40
2022-12-23T01:06:17.465Z,125.30
2022-12-23T01:07:17.469Z,131.60
2022-12-23T01:08:17.446Z,135.60
2022-12-23T01:09:17.451Z,128.10
2022-12-23T01:10:17.421Z,138.40
2022-12-23T01:11:17.394Z,141.00
2022-12-23T01:12:17.431Z,156.70
2022-12-23T01:13:17.369Z,165.60
2022-12-23T01:14:17.371Z,153.70
2022-12-23T01:15:17.355Z,191.00
2022-12-23T01:16:18.064Z,157.60
2022-12-23T01:17:17.514Z,151.30
2022-12-23T01:18:17.326Z,184.80
2022-12-23T01:19:17.341Z,167.30
2022-12-23T01:20:17.312Z,164.30
2022-12-23T01:21:17.278Z,202.70
2022-12-23T01:22:17.291Z,180.90
2022-12-23T01:23:17.269Z,190.70
2022-12-23T01:24:17.299Z,196.40
2022-12-23T01:25:17.252Z,194.10
2022-12-23T01:26:17.242Z,212.80
2022-12-23T01:27:17.217Z,211.80
2022-12-23T01:28:17.213Z,228.80
2022-12-23T01:29:17.221Z,236.80
2022-12-23T01:30:17.199Z,242.20
2022-12-23T01:31:17.300Z,308.50
2022-12-23T01:32:17.288Z,276.60
2022-12-23T01:33:17.150Z,343.50
2022-12-23T01:34:17.178Z,336.10
2022-12-23T01:35:17.152Z,323.10
2022-12-23T01:36:17.131Z,330.90
2022-12-23T01:37:17.114Z,396.00
2022-12-23T01:38:17.153Z,368.60
2022-12-23T01:39:17.088Z,461.00
2022-12-23T01:40:17.124Z,408.30
2022-12-23T01:41:17.097Z,400.50
2022-12-23T01:42:17.083Z,418.60
2022-12-23T01:43:17.057Z,480.10
2022-12-23T01:44:17.035Z,484.30
2022-12-23T01:45:17.019Z,558.10
2022-12-23T01:46:17.109Z,517.10
2022-12-23T01:47:17.012Z,471.30
2022-12-23T01:48:17.018Z,480.00
2022-12-23T01:49:17.002Z,442.00
2022-12-23T01:50:16.961Z,511.10
2022-12-23T01:51:16.951Z,497.40
2022-12-23T01:52:16.947Z,733.60
2022-12-23T01:53:16.924Z,657.00
2022-12-23T01:54:16.967Z,573.00
2022-12-23T01:55:16.898Z,495.30
2022-12-23T01:56:16.931Z,499.60
2022-12-23T01:57:16.875Z,642.10
2022-12-23T01:58:16.893Z,614.50
2022-12-23T01:59:16.859Z,547.50
2022-12-23T02:00:16.852Z,525.00
2022-12-23T02:01:16.917Z,680.90
2022-12-23T02:02:17.016Z,583.90
2022-12-23T02:03:16.827Z,559.60
2022-12-23T02:04:16.841Z,638.00
2022-12-23T02:05:16.781Z,790.50
2022-12-23T02:06:16.785Z,643.70
2022-12-23T02:07:16.764Z,716.50
2022-12-23T02:08:16.795Z,606.30
2022-12-23T02:09:16.739Z,592.90
2022-12-23T02:10:16.750Z,596.40
2022-12-23T02:11:16.743Z,544.60
2022-12-23T02:12:16.761Z,538.60
2022-12-23T02:13:16.693Z,786.20
2022-12-23T02:14:16.694Z,635.70
2022-12-23T02:15:16.675Z,624.20
2022-12-23T02:16:16.718Z,646.30
2022-12-23T02:17:16.717Z,683.70
2022-12-23T02:18:16.654Z,641.10
2022-12-23T02:19:16.625Z,574.20
2022-12-23T02:20:16.630Z,547.00
2022-12-23T02:21:16.618Z,588.40
2022-12-23T02:22:16.609Z,736.60
2022-12-23T02:23:16.629Z,597.80
2022-12-23T02:24:16.579Z,785.10
2022-12-23T02:25:16.601Z,702.90
2022-12-23T02:26:16.564Z,688.10
2022-12-23T02:27:16.548Z,562.20
2022-12-23T02:28:16.544Z,668.40
2022-12-23T02:29:16.513Z,675.00
2022-12-23T02:30:16.530Z,683.80
2022-12-23T02:31:16.578Z,629.40
2022-12-23T02:32:16.492Z,647.60
2022-12-23T02:33:16.472Z,645.30
2022-12-23T02:34:16.466Z,695.00
2022-12-23T02:35:16.450Z,669.50
2022-12-23T02:36:16.483Z,650.70
2022-12-23T02:37:16.416Z,658.20
2022-12-23T02:38:16.461Z,591.00
2022-12-23T02:39:16.397Z,608.40
2022-12-23T02:40:16.395Z,591.40
2022-12-23T02:41:16.412Z,692.40
2022-12-23T02:42:16.421Z,701.30
2022-12-23T02:43:16.357Z,637.10
2022-12-23T02:44:16.393Z,651.80
2022-12-23T02:45:16.329Z,661.30
2022-12-23T02:46:16.422Z,755.50
2022-12-23T02:47:16.319Z,693.50
2022-12-23T02:48:16.315Z,779.70
2022-12-23T02:49:16.313Z,722.60
2022-12-23T02:50:16.285Z,684.90
2022-12-23T02:51:16.317Z,768.10
2022-12-23T02:52:16.286Z,740.00
2022-12-23T02:53:16.250Z,754.20
2022-12-23T02:54:16.283Z,772.00
2022-12-23T02:55:16.221Z,741.20
2022-12-23T02:56:16.224Z,659.50
2022-12-23T02:57:16.211Z,640.80
2022-12-23T02:58:16.196Z,596.30
2022-12-23T02:59:16.207Z,651.30
2022-12-23T03:00:16.199Z,644.90
2022-12-23T03:01:16.239Z,682.00
2022-12-23T03:02:16.405Z,703.80
2022-12-23T03:03:16.261Z,699.10
2022-12-23T03:04:16.132Z,673.70
2022-12-23T03:05:16.137Z,631.90
2022-12-23T03:06:16.642Z,679.30
2022-12-23T03:07:18.620Z,606.20
2022-12-23T03:08:16.091Z,683.10
2022-12-23T03:09:16.055Z,655.00
2022-12-23T03:10:16.086Z,689.90
2022-12-23T03:11:16.035Z,669.40
2022-12-23T03:12:16.042Z,714.20
2022-12-23T03:13:16.015Z,678.50
2022-12-23T03:14:16.048Z,694.20
2022-12-23T03:15:15.991Z,763.20
2022-12-23T03:16:16.054Z,721.30
2022-12-23T03:17:15.975Z,728.00
2022-12-23T03:18:15.984Z,673.60
2022-12-23T03:19:15.943Z,624.30
2022-12-23T03:20:15.979Z,733.70
2022-12-23T03:21:15.968Z,599.00
2022-12-23T03:22:15.930Z,695.80
2022-12-23T03:23:15.922Z,577.10
2022-12-23T03:24:15.904Z,596.80
2022-12-23T03:25:15.885Z,513.20
2022-12-23T03:26:15.917Z,543.70
2022-12-23T03:27:15.855Z,523.00
2022-12-23T03:28:15.862Z,532.00
2022-12-23T03:29:15.829Z,473.70
2022-12-23T03:30:15.844Z,424.00
2022-12-23T03:31:15.882Z,533.80
2022-12-23T03:32:15.813Z,488.50
2022-12-23T03:33:15.790Z,448.10
2022-12-23T03:34:15.806Z,463.50
2022-12-23T03:35:15.764Z,353.00
2022-12-23T03:36:15.770Z,460.70
2022-12-23T03:37:15.774Z,447.50
2022-12-23T03:38:15.757Z,426.70
2022-12-23T03:39:15.713Z,424.50
2022-12-23T03:40:15.725Z,485.90
2022-12-23T03:41:15.693Z,369.70
2022-12-23T03:42:15.733Z,439.00
2022-12-23T03:43:15.681Z,542.50
2022-12-23T03:44:15.683Z,483.20
2022-12-23T03:46:15.728Z,520.70
2022-12-23T03:47:15.662Z,547.00
2022-12-23T03:48:15.621Z,514.00
2022-12-23T03:49:15.621Z,527.50
2022-12-23T03:50:15.608Z,549.70
2022-12-23T03:51:15.587Z,511.00
2022-12-23T03:52:21.012Z,569.30
2022-12-23T03:53:15.570Z,560.70
2022-12-23T03:54:15.596Z,676.50
2022-12-23T03:55:15.549Z,617.90
2022-12-23T03:56:15.549Z,499.30
2022-12-23T03:57:15.521Z,537.60
2022-12-23T03:58:15.537Z,464.40
2022-12-23T03:59:15.503Z,459.40
2022-12-23T04:00:15.522Z,487.60
2022-12-23T04:01:18.005Z,474.30
2022-12-23T04:02:15.865Z,441.80
2022-12-23T04:03:15.452Z,405.00
2022-12-23T04:04:15.545Z,385.70
2022-12-23T04:05:15.422Z,310.30
2022-12-23T04:06:15.433Z,274.90
2022-12-23T04:07:15.446Z,239.30
2022-12-23T04:08:15.405Z,232.50
2022-12-23T04:09:21.688Z,248.40
2022-12-23T04:10:15.469Z,237.80
2022-12-23T04:11:15.356Z,246.90
2022-12-23T04:12:15.377Z,307.20
2022-12-23T04:13:15.336Z,742.40
2022-12-23T04:14:15.337Z,626.00
2022-12-23T04:15:15.343Z,706.50
2022-12-23T04:16:15.373Z,610.90
2022-12-23T04:17:15.307Z,640.00
2022-12-23T04:18:15.286Z,515.90
2022-12-23T04:19:15.298Z,485.30
2022-12-23T04:20:15.284Z,584.40
2022-12-23T04:21:15.257Z,578.10
2022-12-23T04:22:15.288Z,483.60
2022-12-23T04:23:15.249Z,480.70
2022-12-23T04:24:15.223Z,481.80
2022-12-23T04:25:15.244Z,425.70
2022-12-23T04:26:15.198Z,438.00
2022-12-23T04:27:15.228Z,451.00
2022-12-23T04:28:15.210Z,456.10
2022-12-23T04:29:15.171Z,474.40
2022-12-23T04:30:15.182Z,505.90
2022-12-23T04:31:15.184Z,367.50
2022-12-23T04:32:15.147Z,347.60
2022-12-23T04:33:15.136Z,377.80
2022-12-23T04:34:15.100Z,419.40
2022-12-23T04:35:15.155Z,282.50
2022-12-23T04:36:15.075Z,282.10
2022-12-23T04:37:15.071Z,276.90
2022-12-23T04:38:15.066Z,221.80
2022-12-23T04:39:15.047Z,208.70
2022-12-23T04:40:15.085Z,217.90
2022-12-23T04:41:15.726Z,220.60
2022-12-23T04:42:15.035Z,232.90
2022-12-23T04:43:15.011Z,210.20
2022-12-23T04:44:15.002Z,199.10
2022-12-23T04:45:15.025Z,201.10
2022-12-23T04:46:15.151Z,202.50
2022-12-23T04:47:14.961Z,197.10
2022-12-23T04:48:14.995Z,193.70
2022-12-23T04:49:14.944Z,191.40
2022-12-23T04:50:14.923Z,187.00
2022-12-23T04:51:14.920Z,179.60
2022-12-23T04:52:14.937Z,182.60
2022-12-23T04:53:14.899Z,170.10
2022-12-23T04:54:14.879Z,186.20
2022-12-23T04:55:14.889Z,175.80
2022-12-23T04:56:14.881Z,172.70
2022-12-23T04:57:14.859Z,185.70
2022-12-23T04:58:14.830Z,162.80
2022-12-23T04:59:14.837Z,178.50
2022-12-23T05:00:14.816Z,179.00
2022-12-23T05:01:14.925Z,171.50
2022-12-23T05:02:15.093Z,177.60
2022-12-23T05:03:14.886Z,168.80
2022-12-23T05:04:14.809Z,171.30
2022-12-23T05:05:14.768Z,160.40
2022-12-23T05:06:14.800Z,174.10
2022-12-23T05:07:14.787Z,172.90
2022-12-23T05:08:14.717Z,164.80
2022-12-23T05:09:14.724Z,165.60
2022-12-23T05:10:14.705Z,162.90
2022-12-23T05:11:14.702Z,181.80
2022-12-23T05:12:14.672Z,172.20
2022-12-23T05:13:14.776Z,175.20
2022-12-23T05:14:14.653Z,164.40
2022-12-23T05:15:15.641Z,174.70
2022-12-23T05:16:14.707Z,166.00
2022-12-23T05:17:14.635Z,173.50
2022-12-23T05:18:14.640Z,172.70
2022-12-23T05:19:14.620Z,160.90
2022-12-23T05:20:14.589Z,172.40
2022-12-23T05:21:14.579Z,165.60
2022-12-23T05:22:14.571Z,171.20
2022-12-23T05:23:14.605Z,176.00
2022-12-23T05:24:14.570Z,181.40
2022-12-23T05:25:14.540Z,165.80
2022-12-23T05:26:14.526Z,157.10
2022-12-23T05:27:14.514Z,170.40
2022-12-23T05:28:14.496Z,163.10
2022-12-23T05:29:14.525Z,161.20
2022-12-23T05:30:14.467Z,157.50
2022-12-23T05:31:14.527Z,155.20
2022-12-23T05:32:15.127Z,154.00
2022-12-23T05:33:14.527Z,140.30
2022-12-23T05:34:14.416Z,155.80
2022-12-23T05:35:14.428Z,150.40
2022-12-23T05:36:14.401Z,154.10
2022-12-23T05:37:14.451Z,149.40
2022-12-23T05:38:14.376Z,150.30
2022-12-23T05:39:14.386Z,161.90
2022-12-23T05:40:18.467Z,155.90
2022-12-23T05:41:14.361Z,157.50
2022-12-23T05:42:14.335Z,156.20
2022-12-23T05:43:14.330Z,153.10
2022-12-23T05:44:14.345Z,163.70
2022-12-23T05:45:14.311Z,161.00
2022-12-23T05:46:14.389Z,151.90
2022-12-23T05:47:14.295Z,154.00
2022-12-23T05:48:14.267Z,153.40
2022-12-23T05:49:14.340Z,156.70
2022-12-23T05:50:14.244Z,162.30
2022-12-23T05:51:14.258Z,152.10
2022-12-23T05:52:14.228Z,153.30
2022-12-23T05:53:14.227Z,150.10
2022-12-23T05:54:14.231Z,157.90
2022-12-23T05:55:14.256Z,153.50
2022-12-23T05:56:14.172Z,147.00
2022-12-23T05:57:14.188Z,149.40
2022-12-23T05:58:14.151Z,155.10
2022-12-23T05:59:14.162Z,155.00
2022-12-23T06:00:14.164Z,160.40
2022-12-23T06:01:14.150Z,146.40
2022-12-23T06:02:14.325Z,155.50
2022-12-23T06:03:14.322Z,163.30
2022-12-23T06:04:14.217Z,152.30
2022-12-23T06:05:14.127Z,154.20
2022-12-23T06:06:14.098Z,154.70
2022-12-23T06:07:14.063Z,142.80
2022-12-23T06:08:14.046Z,155.00
2022-12-23T06:09:14.049Z,153.40
2022-12-23T06:10:14.023Z,154.90
2022-12-23T06:11:14.046Z,144.20
2022-12-23T06:12:14.003Z,145.50
2022-12-23T06:13:13.991Z,136.90
2022-12-23T06:14:13.973Z,145.80
2022-12-23T06:15:13.983Z,139.20
2022-12-23T06:16:14.019Z,145.70
2022-12-23T06:17:13.957Z,145.70
2022-12-23T06:18:13.936Z,138.60
2022-12-23T06:19:13.939Z,140.00
2022-12-23T06:20:20.360Z,139.70
2022-12-23T06:21:13.952Z,142.90
2022-12-23T06:22:13.887Z,135.10
2022-12-23T06:23:13.893Z,142.60
2022-12-23T06:24:13.859Z,128.30
2022-12-23T06:25:13.882Z,134.30
2022-12-23T06:26:13.891Z,131.30
2022-12-23T06:27:13.836Z,129.80
2022-12-23T06:28:13.827Z,141.60
2022-12-23T06:29:19.814Z,127.70
2022-12-23T06:30:19.824Z,141.10
2022-12-23T06:31:20.366Z,135.30
2022-12-23T06:32:13.882Z,133.40
2022-12-23T06:33:13.777Z,129.60
2022-12-23T06:34:13.748Z,123.10
2022-12-23T06:35:13.755Z,127.40
2022-12-23T06:36:13.726Z,119.30
2022-12-23T06:37:13.756Z,122.10
2022-12-23T06:38:13.727Z,121.80
2022-12-23T06:39:13.709Z,119.40
2022-12-23T06:40:13.681Z,115.10
2022-12-23T06:41:13.726Z,120.50
2022-12-23T06:42:13.683Z,120.90
2022-12-23T06:43:13.678Z,116.10
2022-12-23T06:44:13.677Z,130.00
2022-12-23T06:45:13.697Z,118.00
2022-12-23T06:46:13.778Z,120.80
2022-12-23T06:47:13.633Z,118.20
2022-12-23T06:48:13.644Z,123.80
2022-12-23T06:49:14.063Z,116.50
2022-12-23T06:50:13.578Z,116.40
2022-12-23T06:51:13.656Z,108.00
2022-12-23T06:52:13.581Z,114.60
2022-12-23T06:53:13.591Z,110.90
2022-12-23T06:54:13.523Z,110.00
2022-12-23T06:55:13.576Z,112.80
2022-12-23T06:56:13.502Z,108.00
2022-12-23T06:57:13.536Z,105.70
2022-12-23T06:58:13.482Z,103.30
2022-12-23T06:59:13.476Z,102.30
2022-12-23T07:00:13.516Z,106.00
2022-12-23T07:01:13.487Z,103.60
2022-12-23T07:02:13.524Z,100.80
2022-12-23T07:03:13.641Z,94.20
2022-12-23T07:04:13.452Z,100.30
2022-12-23T07:05:13.442Z,96.70
2022-12-23T07:06:13.434Z,100.60
2022-12-23T07:07:13.408Z,96.30
2022-12-23T07:08:13.417Z,104.30
2022-12-23T07:09:13.376Z,98.80
2022-12-23T07:10:13.386Z,101.60
2022-12-23T07:11:13.338Z,89.90
2022-12-23T07:12:13.361Z,102.80
2022-12-23T07:13:13.337Z,100.60
2022-12-23T07:14:13.336Z,101.50
2022-12-23T07:15:13.304Z,95.50
2022-12-23T07:16:13.385Z,96.20
2022-12-23T07:17:13.416Z,96.90
2022-12-23T07:18:13.298Z,99.10
2022-12-23T07:19:13.257Z,97.40
2022-12-23T07:20:13.222Z,96.00
2022-12-23T07:21:21.344Z,94.40
2022-12-23T07:22:13.254Z,94.80
2022-12-23T07:23:13.224Z,94.70
2022-12-23T07:24:13.190Z,96.70
2022-12-23T07:25:13.210Z,94.40
2022-12-23T07:26:13.165Z,94.10
2022-12-23T07:27:13.206Z,99.10
2022-12-23T07:28:13.143Z,102.10
2022-12-23T07:29:13.139Z,89.10
2022-12-23T07:30:13.116Z,94.10
2022-12-23T07:31:13.172Z,93.80
2022-12-23T07:32:13.221Z,93.40
2022-12-23T07:33:13.107Z,92.00
2022-12-23T07:34:13.078Z,93.40
2022-12-23T07:35:13.110Z,90.20
2022-12-23T07:36:13.060Z,94.80
2022-12-23T07:37:13.048Z,91.20
2022-12-23T07:38:13.028Z,97.60
2022-12-23T07:39:13.034Z,92.80
2022-12-23T07:40:13.057Z,86.40
2022-12-23T07:41:13.047Z,92.90
2022-12-23T07:43:12.995Z,93.40
2022-12-23T07:44:12.979Z,92.40
2022-12-23T07:45:13.674Z,95.00
2022-12-23T07:46:13.054Z,88.20
2022-12-23T07:47:12.960Z,99.00
2022-12-23T07:48:12.917Z,87.50
2022-12-23T07:49:12.914Z,94.70
2022-12-23T07:50:12.917Z,97.10
2022-12-23T07:51:12.930Z,90.60
2022-12-23T07:52:12.895Z,89.30
2022-12-23T07:53:12.856Z,88.80
2022-12-23T07:54:13.401Z,87.20
2022-12-23T07:55:12.840Z,76.70
2022-12-23T07:56:12.910Z,86.10
2022-12-23T07:57:12.818Z,71.10
2022-12-23T07:58:12.814Z,77.90
2022-12-23T07:59:12.796Z,76.60
2022-12-23T08:00:12.827Z,85.90
2022-12-23T08:01:12.838Z,92.90
2022-12-23T08:02:13.153Z,83.90
2022-12-23T08:03:12.917Z,83.40
2022-12-23T08:04:12.784Z,82.30
2022-12-23T08:05:12.882Z,82.90
2022-12-23T08:06:12.740Z,74.70
2022-12-23T08:07:12.703Z,77.00
2022-12-23T08:08:12.704Z,88.30
2022-12-23T08:09:12.708Z,75.70
2022-12-23T08:10:12.710Z,77.80
2022-12-23T08:11:12.665Z,82.20
2022-12-23T08:12:12.658Z,74.60
2022-12-23T08:13:12.634Z,74.70
2022-12-23T08:14:12.680Z,66.20
2022-12-23T08:15:12.653Z,70.00
2022-12-23T08:16:12.700Z,70.40
2022-12-23T08:17:12.674Z,74.90
2022-12-23T08:18:12.595Z,76.10
2022-12-23T08:19:12.577Z,77.90
2022-12-23T08:20:12.602Z,70.40
2022-12-23T08:21:12.545Z,75.00
2022-12-23T08:22:12.622Z,81.60
2022-12-23T08:23:12.525Z,75.60
2022-12-23T08:24:12.573Z,80.40
2022-12-23T08:25:12.511Z,72.90
2022-12-23T08:26:12.501Z,72.70
2022-12-23T08:27:12.521Z,73.60
2022-12-23T08:28:12.483Z,74.00
2022-12-23T08:29:12.461Z,75.20
2022-12-23T08:30:12.451Z,75.40
2022-12-23T08:31:12.506Z,73.60
2022-12-23T08:32:12.456Z,70.50
2022-12-23T08:33:12.422Z,74.30
2022-12-23T08:34:12.696Z,73.50
2022-12-23T08:35:12.389Z,72.10
2022-12-23T08:36:16.088Z,70.30
2022-12-23T08:37:12.381Z,66.70
2022-12-23T08:38:12.371Z,71.90
2022-12-23T08:39:12.379Z,65.90
2022-12-23T08:40:12.348Z,65.50
2022-12-23T08:41:12.319Z,62.00
2022-12-23T08:42:12.333Z,61.40
2022-12-23T08:43:12.302Z,58.40
2022-12-23T08:44:12.349Z,59.00
2022-12-23T08:45:12.271Z,69.80
2022-12-23T08:46:12.382Z,65.10
2022-12-23T08:47:12.249Z,57.40
2022-12-23T08:48:12.254Z,60.60
2022-12-23T08:49:12.232Z,61.80
2022-12-23T08:50:12.238Z,62.70
2022-12-23T08:51:12.265Z,56.90
2022-12-23T08:52:12.237Z,63.50
2022-12-23T08:53:12.185Z,57.50
2022-12-23T08:54:12.224Z,56.80
2022-12-23T08:55:12.164Z,58.60
2022-12-23T08:56:12.182Z,56.80
2022-12-23T08:57:12.156Z,59.80
2022-12-23T08:58:12.145Z,59.30
2022-12-23T08:59:18.237Z,60.20
2022-12-23T09:00:12.126Z,56.60
2022-12-23T09:01:12.220Z,59.40
2022-12-23T09:02:12.373Z,61.60
2022-12-23T09:03:12.135Z,59.70
2022-12-23T09:04:12.163Z,58.90
2022-12-23T09:05:12.045Z,64.30
2022-12-23T09:06:12.054Z,59.40
2022-12-23T09:07:12.070Z,56.60
2022-12-23T09:08:12.027Z,54.40
2022-12-23T09:09:12.039Z,53.70
2022-12-23T09:10:12.044Z,54.50
2022-12-23T09:11:11.987Z,54.40
2022-12-23T09:12:12.046Z,47.60
2022-12-23T09:13:16.275Z,49.60
2022-12-23T09:14:12.002Z,50.80
2022-12-23T09:15:12.653Z,45.10
2022-12-23T09:16:11.990Z,49.40
2022-12-23T09:17:11.914Z,37.70
2022-12-23T09:18:11.927Z,40.60
2022-12-23T09:19:11.933Z,40.90
2022-12-23T09:20:11.884Z,42.80
2022-12-23T09:21:11.871Z,40.30
2022-12-23T09:22:11.880Z,33.80
2022-12-23T09:23:11.850Z,32.10
2022-12-23T09:24:11.891Z,35.30
2022-12-23T09:25:11.827Z,34.50
2022-12-23T09:26:11.824Z,31.90
2022-12-23T09:27:11.810Z,33.00
2022-12-23T09:28:11.805Z,29.60
2022-12-23T09:29:12.648Z,27.80
2022-12-23T09:30:11.788Z,29.30
2022-12-23T09:31:11.875Z,24.80
2022-12-23T09:32:11.751Z,23.80
2022-12-23T09:33:11.750Z,26.20
2022-12-23T09:34:11.743Z,24.90
2022-12-23T09:35:11.747Z,23.40
2022-12-23T09:36:11.720Z,25.90
2022-12-23T09:37:11.696Z,27.40
2022-12-23T09:38:11.702Z,26.70
2022-12-23T09:39:11.935Z,25.10
2022-12-23T09:40:11.703Z,25.20
2022-12-23T09:41:11.651Z,18.20
2022-12-23T09:42:11.645Z,20.20
2022-12-23T09:43:11.632Z,20.20
2022-12-23T09:44:11.625Z,19.00
2022-12-23T09:45:11.627Z,17.90
2022-12-23T09:46:11.699Z,19.10
2022-12-23T09:47:11.585Z,23.40
2022-12-23T09:48:11.572Z,28.60
2022-12-23T09:49:11.578Z,29.40
2022-12-23T09:50:11.586Z,19.20
2022-12-23T09:51:11.611Z,28.90
2022-12-23T09:52:11.530Z,45.00
2022-12-23T09:53:11.502Z,35.70
2022-12-23T09:54:16.582Z,42.30
2022-12-23T09:55:11.488Z,49.50
2022-12-23T09:56:11.519Z,42.40
2022-12-23T09:57:11.460Z,49.10
2022-12-23T09:58:11.519Z,44.20
2022-12-23T09:59:11.437Z,43.80
2022-12-23T10:00:11.465Z,52.10
2022-12-23T10:01:11.421Z,42.60
2022-12-23T10:02:11.589Z,43.80
2022-12-23T10:03:11.821Z,45.80
2022-12-23T10:04:11.549Z,38.30
2022-12-23T10:05:11.399Z,52.10
2022-12-23T10:06:11.400Z,56.70
2022-12-23T10:07:11.387Z,52.90
2022-12-23T10:08:11.359Z,56.30
2022-12-23T10:09:11.337Z,53.30
2022-12-23T10:10:11.339Z,46.10
2022-12-23T10:11:11.306Z,56.60
2022-12-23T10:12:11.346Z,59.90
2022-12-23T10:13:11.280Z,48.20
2022-12-23T10:14:11.283Z,56.80
2022-12-23T10:15:11.261Z,54.90
2022-12-23T10:16:11.324Z,58.50
2022-12-23T10:17:11.238Z,59.70
2022-12-23T10:18:11.265Z,57.70
2022-12-23T10:19:11.248Z,62.00
2022-12-23T10:20:11.262Z,64.40
2022-12-23T10:21:11.203Z,56.50
2022-12-23T10:22:11.188Z,54.70
2022-12-23T10:23:11.175Z,57.00
2022-12-23T10:24:11.204Z,49.60
2022-12-23T10:25:11.193Z,47.30
2022-12-23T10:26:11.185Z,46.30
2022-12-23T10:27:11.162Z,44.40
2022-12-23T10:28:11.169Z,42.40
2022-12-23T10:29:15.464Z,41.70
2022-12-23T10:30:34.208Z,44.90
2022-12-23T10:31:38.699Z,42.80
2022-12-23T10:32:11.127Z,41.60
2022-12-23T10:33:11.060Z,41.00
2022-12-23T10:34:11.083Z,39.70
2022-12-23T10:35:11.032Z,39.20
2022-12-23T10:36:11.133Z,36.00
2022-12-23T10:37:11.190Z,36.30
2022-12-23T10:38:11.001Z,36.90
2022-12-23T10:39:11.040Z,38.90
2022-12-23T10:40:11.059Z,38.60
2022-12-23T10:41:10.984Z,39.50
2022-12-23T10:42:10.999Z,33.40
2022-12-23T10:43:10.955Z,39.30
2022-12-23T10:44:10.978Z,38.10
2022-12-23T10:45:10.939Z,39.50
2022-12-23T10:46:10.955Z,36.60
2022-12-23T10:47:11.123Z,39.30
2022-12-23T10:48:14.087Z,35.60
2022-12-23T10:49:10.935Z,38.90
2022-12-23T10:50:10.873Z,36.90
2022-12-23T10:51:10.862Z,39.30
2022-12-23T10:52:10.840Z,34.10
2022-12-23T10:53:10.839Z,39.90
2022-12-23T10:54:10.855Z,36.40
2022-12-23T10:55:10.820Z,40.40
2022-12-23T10:56:10.803Z,42.60
2022-12-23T10:57:10.809Z,37.80
2022-12-23T10:58:10.803Z,35.00
2022-12-23T10:59:10.780Z,36.10
2022-12-23T11:00:10.783Z,37.70
2022-12-23T11:01:18.635Z,37.80
2022-12-23T11:02:10.900Z,36.90
2022-12-23T11:03:10.917Z,35.10
2022-12-23T11:04:10.736Z,35.80
2022-12-23T11:05:10.756Z,40.70
2022-12-23T11:06:10.684Z,36.40
2022-12-23T11:07:42.905Z,32.10
2022-12-23T11:08:10.711Z,39.30
2022-12-23T11:09:10.663Z,36.00
2022-12-23T11:10:10.675Z,30.30
2022-12-23T11:11:11.179Z,31.40
2022-12-23T11:12:10.637Z,30.70
2022-12-23T11:13:10.628Z,31.60
2022-12-23T11:14:10.597Z,30.00
2022-12-23T11:15:10.602Z,30.60
2022-12-23T11:16:10.725Z,33.20
2022-12-23T11:17:10.585Z,30.00
2022-12-23T11:18:10.586Z,29.00
2022-12-23T11:19:10.546Z,23.20
2022-12-23T11:20:10.608Z,23.00
2022-12-23T11:21:11.549Z,26.20
2022-12-23T11:22:10.504Z,24.80
2022-12-23T11:23:10.519Z,24.00
2022-12-23T11:24:10.656Z,16.50
2022-12-23T11:25:10.487Z,16.70
2022-12-23T11:26:10.488Z,22.90
2022-12-23T11:27:10.476Z,17.40
2022-12-23T11:28:10.452Z,20.90
2022-12-23T11:29:10.468Z,19.00
2022-12-23T11:30:10.420Z,14.90
2022-12-23T11:31:10.457Z,17.80
2022-12-23T11:32:10.430Z,12.20
2022-12-23T11:33:10.436Z,12.70
2022-12-23T11:34:10.415Z,8.70
2022-12-23T11:35:10.433Z,10.50
2022-12-23T11:36:10.384Z,8.30
2022-12-23T11:37:11.158Z,7.00
2022-12-23T11:38:10.326Z,7.30
2022-12-23T11:39:10.401Z,7.70
2022-12-23T11:40:10.297Z,9.60
2022-12-23T11:41:10.302Z,7.10
2022-12-23T11:42:10.357Z,9.40
2022-12-23T11:43:10.382Z,9.30
2022-12-23T11:44:10.320Z,8.00
2022-12-23T11:45:10.266Z,8.30
2022-12-23T11:46:10.281Z,7.80
2022-12-23T11:47:10.240Z,7.00
2022-12-23T11:48:10.209Z,7.30
2022-12-23T11:49:10.243Z,11.10
2022-12-23T11:50:10.195Z,10.50
2022-12-23T11:51:10.197Z,13.00
2022-12-23T11:52:10.197Z,12.80
2022-12-23T11:53:10.172Z,11.20
2022-12-23T11:54:10.181Z,17.30
2022-12-23T11:55:10.145Z,14.10
2022-12-23T11:56:10.120Z,20.10
2022-12-23T11:57:10.212Z,20.30
2022-12-23T11:58:10.103Z,26.20
2022-12-23T11:59:10.108Z,21.60
2022-12-23T12:00:10.119Z,26.10
2022-12-23T12:01:10.106Z,23.70
2022-12-23T12:02:10.128Z,23.60
2022-12-23T12:03:10.116Z,21.40
2022-12-23T12:04:10.041Z,24.70
2022-12-23T12:05:10.040Z,29.30
2022-12-23T12:06:10.036Z,32.90
2022-12-23T12:07:10.026Z,26.80
2022-12-23T12:08:09.999Z,36.10
2022-12-23T12:09:10.016Z,33.30
2022-12-23T12:10:10.001Z,31.60
2022-12-23T12:11:09.979Z,29.40
2022-12-23T12:12:09.957Z,27.50
2022-12-23T12:13:09.969Z,27.00
2022-12-23T12:14:09.929Z,22.90
2022-12-23T12:15:09.960Z,26.50
2022-12-23T12:16:09.979Z,24.20
2022-12-23T12:17:10.045Z,24.30
2022-12-23T12:18:09.875Z,20.40
2022-12-23T12:19:09.915Z,24.10
2022-12-23T12:20:09.933Z,20.40
2022-12-23T12:21:09.906Z,20.70
2022-12-23T12:22:09.830Z,19.20
2022-12-23T12:23:09.834Z,16.20
2022-12-23T12:24:18.468Z,22.30
2022-12-23T12:25:09.825Z,22.30
2022-12-23T12:26:09.829Z,20.00
2022-12-23T12:27:09.793Z,22.40
2022-12-23T12:28:09.769Z,20.40
2022-12-23T12:29:09.773Z,19.60
2022-12-23T12:30:09.747Z,19.10
2022-12-23T12:31:09.854Z,21.70
2022-12-23T12:32:09.729Z,17.70
2022-12-23T12:33:09.722Z,16.30
2022-12-23T12:34:09.740Z,18.80
2022-12-23T12:35:09.709Z,16.70
2022-12-23T12:36:09.738Z,18.80
2022-12-23T12:37:09.679Z,17.30
2022-12-23T12:38:09.644Z,15.70
2022-12-23T12:39:09.655Z,18.50
2022-12-23T12:40:09.701Z,15.00
2022-12-23T12:41:09.658Z,16.50